LTFJLTAY

Guest
Details From LTFJ - SABIHA GOKCEN
To LTAY - CARDAK
Flight Number -
Tags generated
Created
Modified
Stats Distance 188 nm / 349 km
Max Altitude 21,500 ft / 6,553 m
Waypoints 3
Social Downloads 4
Likes 0
Share VATSIM

Download

Looking for another format? Having issues loading an existing format? Contact us
Advertisement - Login to hide

Notes

Basic altitude profile: - Ascent Rate: 2500ft/min - Ascent Speed: 250kts - Cruise Altitude: 35000ft - Cruise Speed: 420kts - Descent Rate: 1500ft/min - Descent Speed: 250kts Options: - Use NATs: yes - Use PACOTS: yes - Use low airways: yes - Use high airways: yes

Route

LTFJ KUTAY LTAY

ID Type Via Altitude Latitude Longitude Leg Dist Tot Dist Heading (true) Name
O LTFJ APT - 0 ft / 0 m 40.89855˚ 29.30922˚ - 0 nm - SABIHA GOKCEN
KUTAY FIX - 21,500 ft / 6,553 m 39.46167˚ 29.62194˚ 87 nm 87 nm 170° / 171° -
O LTAY APT - 0 ft / 0 m 37.78556˚ 29.70130˚ 100 nm 188 nm 178° / 178° CARDAK

Altitude Profile

Advertisement - Login to hide

Weather


0- 5 10 15 20 25 30 35+ Temperature / ° C

Clouds and Precipitation
Forecast for 2017-12-13 00:00 UTC. Updated an hour ago

Ground ~20,000 ft ~40,000 ft Winds

LTFJ

Details ICAO LTFJ (SAW)
Name SABIHA GOKCEN
Region Turkey
Timezone Europe/Istanbul (UTC+3.0)
Stats Elevation 312 ft / 95 m (AMSL)
Location 40.898552° 29.309221°
Runways 1
Magnetic Variation 5.473° E

METAR

LTFJ 122350Z 07003KT 030V120 CAVOK 09/08 Q1020 NOSIG

Decode

TAF

Not found

Departure Runways

ID Width Length Bearing (true) Bearing (mag) Surface Threshold Offset Overrun Length
06 148 ft / 45 m 9,690 ft / 2,953 m 64.01° 58.54° Concrete 0 ft / 0 m 197 ft / 60 m
24 148 ft / 45 m 9,690 ft / 2,953 m 244.03° 238.56° Concrete 0 ft / 0 m 197 ft / 60 m

LTAY

Details ICAO LTAY (DNZ)
Name CARDAK
Region Turkey
Timezone Europe/Istanbul (UTC+3.0)
Stats Elevation 2,795 ft / 852 m (AMSL)
Location 37.785564° 29.701296°
Runways 1
Magnetic Variation 5.087° E

METAR

LTAY 122350Z 24003KT CAVOK M00/M00 Q1022

Decode

TAF

Not found

Destination Runways

ID Width Length Bearing (true) Bearing (mag) Surface Threshold Offset Overrun Length
06 148 ft / 45 m 9,830 ft / 2,996 m 58.82° 53.73° Asphalt 0 ft / 0 m 480 ft / 146 m
24 148 ft / 45 m 9,830 ft / 2,996 m 238.84° 233.75° Asphalt 0 ft / 0 m 506 ft / 154 m

Approach Navaids

Runway Type Ident Frequency Range Bearing (true) Bearing (mag) Slope Elevation
24 Localiser ICRD 110.70 MHz 18 nm / 33 km 238.96° 233.87° - 2,806 ft / 855 m (AMSL)
24 Glidescope ICRD 110.70 MHz 10 nm / 19 km 238.83° 233.74° 3.00° 2,846 ft / 867 m (AMSL)

Popular Alternatives